Tiempo atmosférico en la estación meteorológica de Olmedo, Depósito de Agua, Valladolid (786 m.)



Fecha
DESCASC
Temp. máxima en grados centígrados (hora)
DESCASC
Temp. mínima en grados centígrados (hora)
DESCASC
Temp. media en grados centígrados
DESCASC
Racha de viento máxima en m/sg (hora)
DESCASC
Velocidad máxima media en intervalos de 10 minutos(hora)
DESCASC
Precipitaciones diarias en mm
DESCASC
Precipitaciones de 00:00 a 06:00 en mm
DESCASC
Precipitaciones de 06:00 a 12:00 en mm
DESCASC
Precipitaciones de 12:00 a 18:00 en mm
DESCASC
Precipitaciones de 18:00 a 24:00 en mm
DESCASC
28-12-2020 6.4 (02:40) 1 (00:00) 3.7 21.11 (04:00) 13.33 (00:10) 7.4 7.4 0 0 0
29-12-2020 5.7 (15:00) -1.2 (-00:0) 2.2 12.22 (11:00) 7.22 (11:00) 0.4 0 0 0.4 0
30-12-2020 5.8 (15:50) -3.1 (-00:0) 1.4 8.61 (13:00) 6.11 (13:30) 0 0 0 0 0
31-12-2020 6.1 (15:10) 0 (00:00) 3 14.17 (18:00) 8.33 (18:10) 5.4 0 0 1.2 4.2
01-01-2021 4.8 (15:20) -2.1 (-00:0) 1.4 10.28 (16:10) 6.67 (18:20) 0.2 0 0 0.2 0
02-01-2021 4.1 (17:00) -4.8 (-00:0) -0.4 6.11 (00:50) 4.44 (01:00) 0 0 0 0 0
03-01-2021 2.1 (17:10) -4.8 (-00:0) -1.4 8.89 (13:10) 6.39 (16:40) 0 0 0 0 0
04-01-2021 3.9 (16:20) -3.1 (-00:0) 0.4 7.5 (10:50) 4.72 (10:50) 0 0 0 0 0
05-01-2021 4.9 (16:40) -7 (-00:0) -1 3.89 (01:10) 2.78 (01:40) 1 0 0.2 0.8 0
06-01-2021 5.2 (16:10) -7.4 (-00:0) -1.1 5.28 (15:40) 3.33 (22:10) 0 0 0 0 0
07-01-2021 4.6 (16:20) -6.2 (-00:0) -0.8 4.72 (18:30) 3.06 (18:30) 0 0 0 0 0
08-01-2021 0.5 (14:30) -5.8 (-00:0) -2.7 9.72 (23:50) 6.67 (23:59) 0 0 0 0 0
09-01-2021 -1.2 (00:10) -3 (-00:0) -2.1 13.06 (10:30) 8.61 (09:10) 0.2 0 0 0.2 0
10-01-2021 2.2 (14:10) -2.6 (00:10) -0.2 12.5 (13:10) 8.33 (12:40) 3.6 0 0.6 3 0
11-01-2021 3.3 (14:50) -7 (-00:0) -1.9 8.89 (14:20) 5.28 (15:00) 0 0 0 0 0
12-01-2021 4.5 (17:10) -12.9 (-00:0) -4.2 5.28 (05:30) 4.72 (05:30) 0 0 0 0 0
13-01-2021 6.3 (17:10) -11.7 (-00:0) -2.7 4.17 (07:00) 3.61 (06:50) 0 0 0 0 0
14-01-2021 3.3 (15:30) -11.9 (07:10) -4.3 4.17 (16:40) 3.61 (21:30) 0 0 0 0 0
15-01-2021 1.5 (15:10) -5.5 (-00:0) -2 4.72 (10:00) 3.33 (10:20) 0 0 0 0 0
16-01-2021 -0.6 (15:40) -5.4 (-00:0) -3 0.56 (16:40) 0 (00:10) 0 0 0 0 0
17-01-2021 4.8 (16:50) -10 (-00:0) -2.6 3.61 (22:50) 3.33 (22:50) 0.4 0 0.2 0.2 0
18-01-2021 9.9 (16:30) -5.4 (-00:0) 2.2 4.17 (03:30) 3.61 (03:30) 0 0 0 0 0
19-01-2021 10 (14:30) -4.2 (-00:0) 2.9 6.67 (17:00) 4.72 (17:00) 0 0 0 0 0
20-01-2021 9.4 (14:40) 0.5 (00:00) 4.9 14.17 (18:50) 10 (10:20) 1.6 0 0 0.4 1.2
21-01-2021 10.9 (16:00) 5.8 (00:00) 8.3 20.28 (14:50) 13.89 (14:40) 0.2 0.2 0 0 0
22-01-2021 9.7 (03:40) 3.6 (00:00) 6.6 23.89 (04:10) 16.11 (03:40) 3.6 3.6 0 0 0
23-01-2021 10.2 (21:20) 3.1 (00:00) 6.6 20.56 (16:00) 14.72 (16:50) 2.8 0 0 0.6 2.2
24-01-2021 9 (14:00) 4.3 (00:00) 6.7 16.11 (02:00) 10.83 (03:30) 0 0 0 0 0
25-01-2021 11.6 (16:50) 6.5 (00:00) 9.1 14.17 (06:20) 10.28 (06:40) 6.2 0.2 0 1.6 4.4
26-01-2021 13 (15:50) 8.5 (00:00) 10.8 7.78 (13:10) 5.28 (13:20) 2.2 2 0 0 0.2

Gráficas

Temp. máximas Temp. mínimas Temp. medias Precipitaciones Rachas de viento máximas Velocidades máximas media en intervalos de 10 minutos

Datos horarios

Fecha y hora oficial Temperatura (ºC) Velocidad del viento (km/h) Dirección del viento Racha (km/h) Dirección de racha Precipitación (mm) Presión (hPa) Tendencia (hPa) Humedad (%)
2021-01-26 23:00:00 11.8 13 Oeste 20 Oeste 0 -- -- 99
2021-01-26 22:00:00 11.9 12 Oeste 18 Oeste 0 -- -- 99
2021-01-26 21:00:00 11.7 8 Sudoeste 10 Sudoeste 0 -- -- 99
2021-01-26 20:00:00 11.8 7 Sudoeste 12 Sudoeste 0 -- -- 98
2021-01-26 19:00:00 11.9 7 Oeste 13 Oeste 0.2 -- -- 98
2021-01-26 18:00:00 12.5 7 Oeste 13 Oeste 0 -- -- 96
2021-01-26 17:00:00 12.9 8 Oeste 22 Oeste 0 -- -- 96
2021-01-26 16:00:00 13 10 Oeste 24 Oeste 0 -- -- 93
2021-01-26 15:00:00 12.7 14 Oeste 26 Sudoeste 0 -- -- 93
2021-01-26 14:00:00 12.5 10 Oeste 28 Sudoeste 0 -- -- 95
2021-01-26 13:00:00 12.2 19 Sudoeste 28 Sudoeste 0 -- -- 98
2021-01-26 12:00:00 11.3 15 Oeste 22 Oeste 0 -- -- 99
2021-01-26 11:00:00 10.5 13 Sudoeste 20 Sudoeste 0 -- -- 99
2021-01-26 10:00:00 10 10 Sudoeste 15 Sudoeste 0 -- -- 99
2021-01-26 09:00:00 9.4 10 Oeste 19 Sudoeste 0 -- -- 99
2021-01-26 08:00:00 9.5 10 Oeste 20 Sudoeste 0 -- -- 99
2021-01-26 07:00:00 9.4 9 Oeste 16 Oeste 0 -- -- 99
2021-01-26 06:00:00 9.4 8 Oeste 15 Oeste 0 -- -- 99
2021-01-26 05:00:00 9.2 6 Oeste 10 Oeste 1 -- -- 99
2021-01-26 04:00:00 9.1 5 Oeste 8 Sudoeste 0.4 -- -- 99
2021-01-26 03:00:00 8.6 3 Sur 7 Sudeste 0.2 -- -- 99
2021-01-26 02:00:00 8.6 5 Este 7 Este 0 -- -- 99
2021-01-26 01:00:00 8.5 4 Sur 7 Sudoeste 0.4 -- -- 98
2021-01-26 00:00:00 8.6 7 Sudoeste 9 Sudoeste 0.8 -- -- 98
2021-01-25 23:00:00 8.6 7 Sudoeste 9 Sudoeste 0.4 -- -- 98
2021-01-25 22:00:00 8.7 4 Oeste 8 Oeste 0 -- -- 98
2021-01-25 21:00:00 8.7 6 Noroeste 14 Norte 0.8 -- -- 97
2021-01-25 20:00:00 9.2 5 Norte 15 Norte 0.6 -- -- 97
2021-01-25 19:00:00 9.8 8 Norte 35 Oeste 1.8 -- -- 96
2021-01-25 18:00:00 11.3 21 Oeste 41 Oeste 0 -- -- 92
2021-01-25 17:00:00 11.6 26 Oeste 41 Oeste 0 -- -- 92
2021-01-25 16:00:00 11.2 22 Oeste 46 Oeste 0 -- -- 95
2021-01-25 15:00:00 10.8 25 Oeste 40 Oeste 0.6 -- -- 97
2021-01-25 14:00:00 10.7 27 Oeste 44 Sudoeste 0.6 -- -- 96
2021-01-25 13:00:00 10.6 29 Oeste 49 Oeste 0.4 -- -- 95
2021-01-25 12:00:00 10.6 31 Oeste 51 Oeste 0 -- -- 93
2021-01-25 11:00:00 9.8 27 Sudoeste 43 Sudoeste 0 -- -- 95
2021-01-25 10:00:00 9.5 29 Sudoeste 44 Sudoeste 0 -- -- 93
2021-01-25 09:00:00 9 28 Sudoeste 46 Sudoeste 0 -- -- 94
2021-01-25 08:00:00 9.1 32 Sudoeste 45 Sudoeste 0 -- -- 91
2021-01-25 07:00:00 8.8 33 Sudoeste 51 Sudoeste 0 -- -- 92
2021-01-25 06:00:00 8.7 32 Sudoeste 46 Sudoeste 0 -- -- 91
2021-01-25 05:00:00 8.6 35 Sudoeste 48 Sudoeste 0 -- -- 90
2021-01-25 04:00:00 8.4 36 Sudoeste 46 Sudoeste 0 -- -- 91
2021-01-25 03:00:00 7.8 27 Sudoeste 37 Sudoeste 0 -- -- 91
2021-01-25 02:00:00 6.9 22 Sudoeste 30 Sudoeste 0.2 -- -- 91
2021-01-25 01:00:00 6.9 22 Sudoeste 30 Sudoeste 0 -- -- 89
2021-01-25 00:00:00 6.5 18 Sudoeste 29 Sudoeste 0 -- -- 89
2021-01-24 23:00:00 6.7 22 Sudoeste 28 Sudoeste 0 -- -- 88
2021-01-24 22:00:00 6.8 13 Sudoeste 29 Sudoeste 0 -- -- 88
2021-01-24 21:00:00 6.9 18 Sudoeste 28 Sudoeste 0 -- -- 87
2021-01-24 20:00:00 7.2 17 Sudoeste 30 Sudoeste 0 -- -- 84
2021-01-24 19:00:00 7.2 14 Sudoeste 26 Sudoeste 0 -- -- 83
2021-01-24 18:00:00 7.8 19 Sudoeste 33 Oeste 0 -- -- 79
2021-01-24 17:00:00 8.2 22 Oeste 37 Oeste 0 -- -- 77
2021-01-24 16:00:00 8.5 23 Oeste 39 Sudoeste 0 -- -- 72
2021-01-24 15:00:00 8.5 22 Oeste 42 Oeste 0 -- -- 73
2021-01-24 14:00:00 9 24 Oeste 43 Oeste 0 -- -- 72
2021-01-24 13:00:00 8.5 32 Oeste 50 Sudoeste 0 -- -- 71
2021-01-24 12:00:00 8.2 30 Oeste 43 Oeste 0 -- -- 75
2021-01-24 11:00:00 7.1 26 Oeste 39 Oeste 0 -- -- 81
2021-01-24 10:00:00 5.6 24 Oeste 38 Sudoeste 0 -- -- 87
2021-01-24 09:00:00 4.3 18 Sudoeste 31 Oeste 0 -- -- 91
2021-01-24 08:00:00 5.1 19 Sudoeste 33 Oeste 0 -- -- 89
2021-01-24 07:00:00 5.9 22 Oeste 42 Oeste 0 -- -- 88
2021-01-24 06:00:00 6.6 27 Oeste 41 Oeste 0 -- -- 88
2021-01-24 05:00:00 6.7 27 Oeste 51 Oeste 0 -- -- 88
2021-01-24 04:00:00 6.9 31 Sudoeste 55 Sudoeste 0 -- -- 86
2021-01-24 03:00:00 6.9 30 Oeste 53 Oeste 0 -- -- 87
2021-01-24 02:00:00 7.1 33 Oeste 58 Oeste 0 -- -- 86
2021-01-24 01:00:00 6.6 30 Sudoeste 53 Sudoeste 0 -- -- 87
2021-01-24 00:00:00 7.2 29 Sudoeste 43 Sudoeste 0 -- -- 82
2021-01-23 23:00:00 7.9 28 Oeste 60 Oeste 0 -- -- 82
2021-01-23 22:00:00 9.3 34 Oeste 55 Oeste 1.8 -- -- 94
2021-01-23 21:00:00 9.5 30 Sudoeste 57 Sudoeste 0.4 -- -- 97
2021-01-23 20:00:00 9.1 34 Sudoeste 61 Sudoeste 0 -- -- 94
2021-01-23 19:00:00 8.9 44 Sudoeste 66 Sudoeste 0 -- -- 91
2021-01-23 18:00:00 8.4 40 Sudoeste 69 Sudoeste 0.2 -- -- 92
2021-01-23 17:00:00 8.4 53 Sudoeste 71 Sudoeste 0 -- -- 91
2021-01-23 16:00:00 8.9 50 Sudoeste 74 Sudoeste 0 -- -- 86
2021-01-23 15:00:00 8.3 41 Sudoeste 64 Sudoeste 0 -- -- 85
2021-01-23 14:00:00 7.2 34 Sudoeste 51 Sudoeste 0.2 -- -- 88
2021-01-23 13:00:00 6.2 33 Sudoeste 49 Sudoeste 0.2 -- -- 88
2021-01-23 12:00:00 6.2 32 Sudoeste 51 Sudoeste 0 -- -- 82
2021-01-23 11:00:00 5.7 31 Sudoeste 57 Sudoeste 0 -- -- 87
2021-01-23 10:00:00 4.6 36 Sudoeste 48 Sudoeste 0 -- -- 91
2021-01-23 09:00:00 4.2 32 Sudoeste 45 Sudoeste 0 -- -- 90
2021-01-23 08:00:00 4.2 31 Sudoeste 50 Sudoeste 0 -- -- 88
2021-01-23 07:00:00 3.8 36 Sudoeste 46 Sudoeste 0 -- -- 90
2021-01-23 06:00:00 3.7 24 Sudoeste 37 Sudoeste 0 -- -- 89
2021-01-23 05:00:00 3.1 27 Sudoeste 40 Sudoeste 0 -- -- 90
2021-01-23 04:00:00 3.8 27 Sudoeste 44 Sudoeste 0 -- -- 88
2021-01-23 03:00:00 3.8 26 Sudoeste 40 Sudoeste 0 -- -- 89
2021-01-23 02:00:00 4.2 26 Sudoeste 38 Sudoeste 0 -- -- 87
2021-01-23 01:00:00 3.4 21 Sudoeste 39 Sudoeste 0 -- -- 88
2021-01-23 00:00:00 4 27 Sudoeste 42 Sudoeste 0 -- -- 88
2021-01-22 23:00:00 4.2 27 Sudoeste 40 Sudoeste 0 -- -- 89
2021-01-22 22:00:00 3.9 17 Oeste 33 Sudoeste 0 -- -- 90
2021-01-22 21:00:00 4.8 20 Sudoeste 34 Sudoeste 0 -- -- 89
2021-01-22 20:00:00 4.9 24 Sudoeste 37 Sudoeste 0 -- -- 86
2021-01-22 19:00:00 5.5 24 Oeste 40 Sudoeste 0 -- -- 86
2021-01-22 18:00:00 6 20 Oeste 41 Oeste 0 -- -- 81
2021-01-22 17:00:00 7.5 24 Oeste 46 Oeste 0 -- -- 72
2021-01-22 16:00:00 8 30 Oeste 49 Oeste 0 -- -- 73
2021-01-22 15:00:00 7.1 30 Oeste 49 Oeste 0 -- -- 76
2021-01-22 14:00:00 6.9 30 Oeste 51 Oeste 0 -- -- 77
2021-01-22 13:00:00 7.3 26 Oeste 45 Oeste 0 -- -- 78
2021-01-22 12:00:00 6.4 26 Oeste 48 Oeste 0 -- -- 85
2021-01-22 11:00:00 5.8 29 Oeste 57 Sudoeste 0 -- -- 88
2021-01-22 10:00:00 5.3 29 Oeste 59 Oeste 0 -- -- 88
2021-01-22 09:00:00 4.8 36 Sudoeste 60 Sudoeste 0 -- -- 90
2021-01-22 08:00:00 4.6 32 Sudoeste 50 Sudoeste 0 -- -- 88
2021-01-22 07:00:00 4.6 34 Sudoeste 52 Sudoeste 0 -- -- 88
2021-01-22 06:00:00 5 30 Oeste 68 Oeste 0.4 -- -- 90
2021-01-22 05:00:00 6 43 Oeste 86 Sudoeste 3.2 -- -- 84
2021-01-22 04:00:00 9.4 50 Sudoeste 82 Sudoeste 0 -- -- 86
2021-01-22 03:00:00 9.2 52 Sudoeste 78 Sudoeste 0 -- -- 84
2021-01-22 02:00:00 8.8 41 Sudoeste 56 Sudoeste 0 -- -- 85
2021-01-22 01:00:00 8.4 29 Sudoeste 45 Sudoeste 0 -- -- 89
2021-01-22 00:00:00 8.4 33 Sudoeste 49 Sudoeste 0 -- -- 91
2021-01-21 23:00:00 8.3 34 Sudoeste 46 Sudoeste 0 -- -- 93
2021-01-21 22:00:00 8.8 16 Sudoeste 42 Sudoeste 0 -- -- 92
2021-01-21 21:00:00 8.8 26 Sudoeste 49 Sudoeste 0 -- -- 92
2021-01-21 20:00:00 8.9 29 Sudoeste 50 Sudoeste 0 -- -- 92
2021-01-21 19:00:00 9.3 33 Sudoeste 58 Sudoeste 0 -- -- 89
2021-01-21 18:00:00 10 39 Sudoeste 64 Sudoeste 0 -- -- 86
2021-01-21 17:00:00 10.6 41 Sudoeste 71 Sudoeste 0 -- -- 83
2021-01-21 16:00:00 10.9 46 Sudoeste 71 Sudoeste 0 -- -- 81
2021-01-21 15:00:00 10.4 50 Sudoeste 73 Sudoeste 0 -- -- 83
2021-01-21 14:00:00 9.5 44 Sudoeste 65 Sudoeste 0 -- -- 85
2021-01-21 13:00:00 9.7 44 Sudoeste 58 Sudoeste 0 -- -- 82
2021-01-21 12:00:00 9.1 41 Sudoeste 60 Sudoeste 0 -- -- 85
2021-01-21 11:00:00 8.4 33 Sudoeste 46 Sudoeste 0 -- -- 88
2021-01-21 10:00:00 6.5 24 Sudoeste 33 Sudoeste 0 -- -- 93
2021-01-21 09:00:00 5.8 26 Sudoeste 37 Sudoeste 0 -- -- 94
2021-01-21 08:00:00 6.2 24 Sudoeste 32 Sudoeste 0 -- -- 95
2021-01-21 07:00:00 6.4 16 Sudoeste 38 Sudoeste 0 -- -- 92
2021-01-21 06:00:00 6.7 28 Sudoeste 39 Sudoeste 0 -- -- 92
2021-01-21 05:00:00 6.4 26 Sudoeste 43 Sudoeste 0 -- -- 94
2021-01-21 04:00:00 6.8 27 Sudoeste 40 Sudoeste 0.2 -- -- 93
2021-01-21 03:00:00 6.4 25 Sudoeste 37 Sudoeste 0 -- -- 93
2021-01-21 02:00:00 6.8 26 Sudoeste 39 Sudoeste 0 -- -- 94
2021-01-21 01:00:00 6.7 29 Sudoeste 41 Sudoeste 0 -- -- 95
2021-01-21 00:00:00 6.4 28 Sudoeste 39 Sudoeste 0 -- -- 94
2021-01-20 23:00:00 6.5 23 Sudoeste 32 Sudoeste 0 -- -- 93
2021-01-20 22:00:00 6.2 24 Sudoeste 34 Sudoeste 0 -- -- 94
2021-01-20 21:00:00 6.9 25 Sudoeste 35 Sudoeste 0 -- -- 94
2021-01-20 20:00:00 6.4 21 Sudoeste 39 Sudoeste 0 -- -- 93
2021-01-20 19:00:00 7.2 34 Sudoeste 51 Sudoeste 1.2 -- -- 91
2021-01-20 18:00:00 7.6 26 Sudoeste 49 Sudoeste 0.2 -- -- 90
2021-01-20 17:00:00 8.8 35 Sudoeste 48 Sudoeste 0 -- -- 81
2021-01-20 16:00:00 8 33 Sudoeste 46 Sudoeste 0.2 -- -- 82
2021-01-20 15:00:00 9.2 30 Sudoeste 47 Sudoeste 0 -- -- 70
2021-01-20 14:00:00 8.6 27 Sudoeste 41 Sur 0 -- -- 70
2021-01-20 13:00:00 7.9 33 Sur 46 Sur 0 -- -- 78
2021-01-20 12:00:00 6.1 35 Sur 46 Sur 0 -- -- 81
2021-01-20 11:00:00 4.6 32 Sur 48 Sur 0 -- -- 81
2021-01-20 10:00:00 3.9 32 Sur 43 Sur 0 -- -- 83
2021-01-20 09:00:00 3.4 30 Sur 44 Sur 0 -- -- 87
2021-01-20 08:00:00 3.6 33 Sur 41 Sur 0 -- -- 86
2021-01-20 07:00:00 3.6 32 Sur 41 Sur 0 -- -- 84
2021-01-20 06:00:00 2.5 23 Sur 27 Sur 0 -- -- 86
2021-01-20 05:00:00 2.3 20 Sur 25 Sur 0 -- -- 87
2021-01-20 04:00:00 2.3 21 Sur 29 Sur 0 -- -- 85
2021-01-20 03:00:00 1.3 13 Sudoeste 24 Sudoeste 0 -- -- 87
2021-01-20 02:00:00 0.8 12 Sur 16 Sur 0 -- -- 90
2021-01-20 01:00:00 0.8 13 Sur 18 Sur 0 -- -- 92
2021-01-20 00:00:00 0.5 10 Sur 12 Sur 0 -- -- 92
2021-01-19 23:00:00 1.1 5 Oeste 8 Oeste 0 -- -- 87
2021-01-19 22:00:00 1.7 4 Sudoeste 14 Sudoeste 0 -- -- 86
2021-01-19 21:00:00 2.4 13 Sudoeste 18 Sur 0 -- -- 85
2021-01-19 20:00:00 3 11 Sudoeste 14 Sudoeste 0 -- -- 81
2021-01-19 19:00:00 3.8 12 Sudoeste 14 Sudoeste 0 -- -- 78
2021-01-19 18:00:00 5.7 8 Sudoeste 22 Sudoeste 0 -- -- 72
2021-01-19 17:00:00 8.1 17 Sudoeste 24 Sudoeste 0 -- -- 61
2021-01-19 16:00:00 8 14 Sudoeste 18 Sudoeste 0 -- -- 63
2021-01-19 15:00:00 9.5 8 Sur 12 Sur 0 -- -- 58
2021-01-19 14:00:00 9.4 4 Sur 6 Sudoeste 0 -- -- 61
2021-01-19 13:00:00 6.5 0 Calma 8 Este 0 -- -- 69
2021-01-19 12:00:00 2.9 4 Este 11 Este 0 -- -- 80
2021-01-19 11:00:00 -0.6 9 Este 18 Sudeste 0 -- -- 86
2021-01-19 10:00:00 -2.8 6 Este 15 Sudeste 0 -- -- 88
2021-01-19 09:00:00 -4.2 4 Sudeste 19 Sudeste 0 -- -- 89
2021-01-19 08:00:00 -1.9 12 Sudeste 19 Sudeste 0 -- -- 91
2021-01-19 07:00:00 -1.1 14 Sur 20 Sur 0 -- -- 89
2021-01-19 06:00:00 -1.6 14 Sur 17 Sur 0 -- -- 94
2021-01-19 05:00:00 -3.4 10 Sudeste 13 Este 0 -- -- 94
2021-01-19 04:00:00 -3.3 13 Este 15 Este 0 -- -- 94
2021-01-19 03:00:00 -3.1 6 Este 10 Sudeste 0 -- -- 93
2021-01-19 02:00:00 -2.4 8 Sudeste 9 Este 0 -- -- 94
2021-01-19 01:00:00 -2 7 Este 12 Sudeste 0 -- -- 93
2021-01-19 00:00:00 -1.6 8 Este 9 Este 0 -- -- 91
2021-01-18 23:00:00 0.3 5 Este 6 Este 0 -- -- 88
2021-01-18 22:00:00 1.6 4 Este 8 Este 0 -- -- 85
2021-01-18 21:00:00 1 3 Sudeste 4 Sudeste 0 -- -- 86
2021-01-18 20:00:00 4.2 4 Noroeste 6 Noroeste 0 -- -- 74
2021-01-18 19:00:00 5.5 5 Norte 6 Norte 0 -- -- 67
2021-01-18 18:00:00 8.3 3 Norte 6 Norte 0 -- -- 61
2021-01-18 17:00:00 9.6 3 Norte 5 Noroeste 0 -- -- 58
2021-01-18 16:00:00 9.5 3 Norte 5 Norte 0 -- -- 59
2021-01-18 15:00:00 8.8 2 Sudoeste 4 Sur 0 -- -- 56
2021-01-18 14:00:00 7 0 Calma 7 Nordeste 0 -- -- 60
2021-01-18 13:00:00 3.8 3 Este 9 Sudeste 0 -- -- 64
2021-01-18 12:00:00 1.1 5 Este 10 Este 0 -- -- 76
2021-01-18 11:00:00 -1.5 7 Este 10 Sudeste 0 -- -- 81
2021-01-18 10:00:00 -3.7 7 Este 11 Este 0 -- -- 84
2021-01-18 09:00:00 -4.9 5 Nordeste 6 Nordeste 0 -- -- 84
2021-01-18 08:00:00 -4.9 0 Calma 5 Sur 0 -- -- 86
2021-01-18 07:00:00 -4.3 0 Calma 4 Nordeste 0 -- -- 86
2021-01-18 06:00:00 -4.6 3 Sur 6 Sur 0 -- -- 86
2021-01-18 05:00:00 -5.2 7 Sudeste 10 Este 0 -- -- 87
2021-01-18 04:00:00 -4.7 6 Este 15 Este 0 -- -- 86
2021-01-18 03:00:00 -3.5 8 Este 12 Este 0 -- -- 83
2021-01-18 02:00:00 -3.8 10 Este 12 Este 0 -- -- 86
2021-01-18 01:00:00 -3.2 7 Este 11 Este 0 -- -- 86
2021-01-18 00:00:00 -1.5 9 Este 12 Sudeste 0 -- -- 87
2021-01-17 23:00:00 -1.4 11 Sudeste 13 Sudeste 0 -- -- 90
2021-01-17 22:00:00 -0.8 2 Este 3 Sudeste 0 -- -- 87
2021-01-17 21:00:00 -0.9 0 Calma 4 Sudoeste 0 -- -- 86
2021-01-17 20:00:00 -0.6 3 Sudoeste 7 Sudoeste 0 -- -- 86
2021-01-17 19:00:00 0.3 5 Sudoeste 8 Sudoeste 0 -- -- 85
2021-01-17 18:00:00 3.5 3 Oeste 5 Noroeste 0 -- -- 76
2021-01-17 17:00:00 4.8 0 Calma 4 Sudoeste 0 -- -- 75
2021-01-17 16:00:00 3.7 3 Oeste 6 Oeste 0 -- -- 79
2021-01-17 15:00:00 2.1 3 Oeste 5 Sudoeste 0.2 -- -- 83
2021-01-17 14:00:00 0.8 0 Calma 6 Noroeste 0 -- -- 95
2021-01-17 13:00:00 -1.6 4 Norte 10 Norte 0 -- -- 98
2021-01-17 12:00:00 -2.8 0 Calma 3 Norte 0.2 -- -- 98
2021-01-17 11:00:00 -6 0 Calma -- -- 0 -- -- 96
2021-01-17 10:00:00 -8.4 0 Calma -- -- 0 -- -- 93
2021-01-17 09:00:00 -10 0 Calma -- -- 0 -- -- 92
2021-01-17 08:00:00 -9.1 0 Calma -- -- 0 -- -- 92
2021-01-17 07:00:00 -7.8 0 Calma -- -- 0 -- -- 93
2021-01-17 06:00:00 -7.5 0 Calma -- -- 0 -- -- 93
2021-01-17 05:00:00 -5.7 0 Calma -- -- 0 -- -- 95
2021-01-17 04:00:00 -7 0 Calma -- -- 0 -- -- 95
2021-01-17 03:00:00 -7.4 0 Calma -- -- 0 -- -- 94
2021-01-17 02:00:00 -6.7 0 Calma -- -- 0 -- -- 94
2021-01-17 01:00:00 -5.8 0 Calma -- -- 0 -- -- 95
2021-01-17 00:00:00 -4.1 0 Calma -- -- 0 -- -- 96
2021-01-16 23:00:00 -4 0 Calma -- -- 0 -- -- 97
2021-01-16 22:00:00 -4 0 Calma -- -- 0 -- -- 97
2021-01-16 21:00:00 -3.6 0 Calma -- -- 0 -- -- 97
2021-01-16 20:00:00 -3 0 Calma -- -- 0 -- -- 98
2021-01-16 19:00:00 -2.3 0 Calma -- -- 0 -- -- 98
2021-01-16 18:00:00 -1.7 0 Calma -- -- 0 -- -- 98
2021-01-16 17:00:00 -1.2 0 Calma 2 Noroeste 0 -- -- 98
2021-01-16 16:00:00 -0.8 0 Calma 0 Calma 0 -- -- 98
2021-01-16 15:00:00 -1 0 Calma -- -- 0 -- -- 99
2021-01-16 14:00:00 -2.2 0 Calma -- -- 0 -- -- 99
2021-01-16 13:00:00 -2.9 0 Calma -- -- 0 -- -- 98
2021-01-16 12:00:00 -4.4 0 Calma -- -- 0 -- -- 97
2021-01-16 11:00:00 -4.9 0 Calma -- -- 0 -- -- 96
2021-01-16 10:00:00 -5 0 Calma -- -- 0 -- -- 96
2021-01-16 09:00:00 -5.3 0 Calma -- -- 0 -- -- 96
2021-01-16 08:00:00 -5.1 0 Calma -- -- 0 -- -- 96
2021-01-16 07:00:00 -5.2 0 Calma -- -- 0 -- -- 96
2021-01-16 06:00:00 -5.3 0 Calma -- -- 0 -- -- 96
2021-01-16 05:00:00 -4.8 0 Calma -- -- 0 -- -- 96
2021-01-16 04:00:00 -3.5 0 Calma -- -- 0 -- -- 98
2021-01-16 03:00:00 -3.4 0 Calma -- -- 0 -- -- 98
2021-01-16 02:00:00 -3.1 0 Calma -- -- 0 -- -- 98
2021-01-16 01:00:00 -2.9 0 Calma -- -- 0 -- -- 98
2021-01-16 00:00:00 -2.6 0 Calma -- -- 0 -- -- 98
2021-01-15 23:00:00 -2.2 0 Calma -- -- 0 -- -- 98
2021-01-15 22:00:00 -2 0 Calma -- -- 0 -- -- 98
2021-01-15 21:00:00 -1.8 0 Calma -- -- 0 -- -- 98
2021-01-15 20:00:00 -1.2 2 Noroeste 10 Noroeste 0 -- -- 98
2021-01-15 19:00:00 -0.7 7 Noroeste 13 Norte 0 -- -- 97
2021-01-15 18:00:00 0 9 Noroeste 16 Noroeste 0 -- -- 97
2021-01-15 17:00:00 0.6 8 Noroeste 12 Noroeste 0 -- -- 96
2021-01-15 16:00:00 1.2 9 Noroeste 14 Noroeste 0 -- -- 95
2021-01-15 15:00:00 1.4 7 Norte 12 Norte 0 -- -- 95
2021-01-15 14:00:00 1.2 6 Norte 13 Norte 0 -- -- 97
2021-01-15 13:00:00 0.3 6 Norte 12 Norte 0 -- -- 97
2021-01-15 12:00:00 -0.5 5 Este 13 Este 0 -- -- 97
2021-01-15 11:00:00 -0.9 11 Este 15 Este 0 -- -- 97
2021-01-15 10:00:00 -1.7 10 Este 17 Este 0 -- -- 97
2021-01-15 09:00:00 -2.4 6 Este 9 Este 0 -- -- 96
2021-01-15 08:00:00 -2.7 4 Este 10 Este 0 -- -- 94
2021-01-15 07:00:00 -3.2 3 Este 8 Nordeste 0 -- -- 94
2021-01-15 06:00:00 -3.8 2 Noroeste 8 Norte 0 -- -- 94
2021-01-15 05:00:00 -3.9 4 Norte 7 Noroeste 0 -- -- 91
2021-01-15 04:00:00 -3.7 0 Calma 6 Este 0 -- -- 92
2021-01-15 03:00:00 -4.1 3 Norte 7 Nordeste 0 -- -- 90
2021-01-15 02:00:00 -4 3 Nordeste 7 Este 0 -- -- 92
2021-01-15 01:00:00 -4.7 5 Este 13 Sudeste 0 -- -- 91
2021-01-15 00:00:00 -5.4 9 Sudeste 10 Sudeste 0 -- -- 89
2021-01-14 23:00:00 -5 5 Sur 12 Sur 0 -- -- 86
2021-01-14 22:00:00 -4.5 9 Sur 15 Sur 0 -- -- 86
2021-01-14 21:00:00 -4 6 Sur 10 Sur 0 -- -- 91
2021-01-14 20:00:00 -3.4 4 Sur 6 Sudoeste 0 -- -- 86
2021-01-14 19:00:00 -1.3 3 Noroeste 6 Noroeste 0 -- -- 84
2021-01-14 18:00:00 0.9 4 Oeste 9 Noroeste 0 -- -- 75
2021-01-14 17:00:00 2.5 6 Norte 15 Norte 0 -- -- 70
2021-01-14 16:00:00 3.3 4 Noroeste 8 Norte 0 -- -- 66
2021-01-14 15:00:00 2.1 3 Sudoeste 8 Sur 0 -- -- 72
2021-01-14 14:00:00 1.1 4 Sur 8 Sur 0 -- -- 67
2021-01-14 13:00:00 0 3 Sur 5 Sur 0 -- -- 66
2021-01-14 12:00:00 -3.7 4 Este 8 Este 0 -- -- 75
2021-01-14 11:00:00 -6.5 2 Norte 6 Norte 0 -- -- 82
2021-01-14 10:00:00 -8.3 3 Este 4 Nordeste 0 -- -- 91
2021-01-14 09:00:00 -11.7 0 Calma 3 Sudeste 0 -- -- 89
2021-01-14 08:00:00 -11.7 4 Sudeste 9 Este 0 -- -- 91
2021-01-14 07:00:00 -11.7 5 Este 10 Este 0 -- -- 90
2021-01-14 06:00:00 -9.7 8 Este 9 Este 0 -- -- 89
2021-01-14 05:00:00 -9.3 4 Este 13 Sudeste 0 -- -- 89
2021-01-14 04:00:00 -8.1 11 Sudeste 13 Sudeste 0 -- -- 84
2021-01-14 03:00:00 -8.2 4 Sur 6 Sur 0 -- -- 89
2021-01-14 02:00:00 -7.3 2 Sudeste 12 Sudeste 0 -- -- 86
2021-01-14 01:00:00 -6.8 6 Sur 8 Sur 0 -- -- 86
2021-01-14 00:00:00 -5.8 8 Sur 10 Sur 0 -- -- 84
2021-01-13 23:00:00 -4.7 8 Sur 10 Sur 0 -- -- 82
2021-01-13 22:00:00 -4.1 3 Sudoeste 9 Sudoeste 0 -- -- 81
2021-01-13 21:00:00 -3.8 8 Sudoeste 10 Sudoeste 0 -- -- 78
2021-01-13 20:00:00 -2 6 Sudoeste 8 Sudoeste 0 -- -- 72
2021-01-13 19:00:00 -1.2 5 Sudoeste 9 Sudoeste 0 -- -- 72
2021-01-13 18:00:00 2.4 6 Oeste 8 Oeste 0 -- -- 63
2021-01-13 17:00:00 6.2 0 Calma 6 Norte 0 -- -- 57
2021-01-13 16:00:00 5.4 3 Noroeste 5 Sudoeste 0 -- -- 57
2021-01-13 15:00:00 5.5 0 Calma 5 Sudoeste 0 -- -- 60
2021-01-13 14:00:00 3.2 3 Sudoeste 5 Sudoeste 0 -- -- 62
2021-01-13 13:00:00 0.2 0 Calma 8 Este 0 -- -- 65
2021-01-13 12:00:00 -3.5 4 Este 9 Este 0 -- -- 71
2021-01-13 11:00:00 -7.1 6 Este 9 Este 0 -- -- 76
2021-01-13 10:00:00 -9.6 4 Este 9 Este 0 -- -- 80
2021-01-13 09:00:00 -9.3 9 Este 13 Este 0 -- -- 81
2021-01-13 08:00:00 -10 13 Este 15 Este 0 -- -- 85
2021-01-13 07:00:00 -11 12 Este 15 Este 0 -- -- 87
2021-01-13 06:00:00 -11.4 8 Este 10 Este 0 -- -- 86
2021-01-13 05:00:00 -10.9 7 Este 9 Este 0 -- -- 88
2021-01-13 04:00:00 -10.8 5 Sudeste 10 Este 0 -- -- 91
2021-01-13 03:00:00 -10.1 7 Este 10 Este 0 -- -- 89
2021-01-13 02:00:00 -9.3 8 Sudeste 12 Este 0 -- -- 87
2021-01-13 01:00:00 -8.3 4 Este 8 Sudeste 0 -- -- 89
2021-01-13 00:00:00 -7 3 Sudeste 7 Sudeste 0 -- -- 88
2021-01-12 23:00:00 -6.5 6 Sudeste 10 Sudeste 0 -- -- 88
2021-01-12 22:00:00 -5.3 4 Sudeste 13 Sur 0 -- -- 86
2021-01-12 21:00:00 -4.9 8 Sur 9 Sur 0 -- -- 85
2021-01-12 20:00:00 -4.2 5 Sur 8 Sudoeste 0 -- -- 82
2021-01-12 19:00:00 -2.1 7 Sudoeste 9 Sudoeste 0 -- -- 74
2021-01-12 18:00:00 2.9 2 Noroeste 4 Noroeste 0 -- -- 63
2021-01-12 17:00:00 4.4 0 Calma 3 Noroeste 0 -- -- 61
2021-01-12 16:00:00 2.7 2 Oeste 7 Sudoeste 0 -- -- 64
2021-01-12 15:00:00 2.2 2 Oeste 5 Sudoeste 0 -- -- 67
2021-01-12 14:00:00 1 2 Sur 6 Sudeste 0 -- -- 69
2021-01-12 13:00:00 -3.1 5 Sudeste 9 Sudeste 0 -- -- 77
2021-01-12 12:00:00 -4.9 5 Sudeste 7 Sudeste 0 -- -- 80
2021-01-12 11:00:00 -7.8 3 Este 10 Sudeste 0 -- -- 82
2021-01-12 10:00:00 -10.5 5 Sudeste 8 Sudeste 0 -- -- 86
2021-01-12 09:00:00 -12.8 4 Este 6 Sudeste 0 -- -- 91
2021-01-12 08:00:00 -12.3 5 Sudeste 12 Sudeste 0 -- -- 90
2021-01-12 07:00:00 -12 6 Este 16 Sudeste 0 -- -- 87
2021-01-12 06:00:00 -9.8 11 Sudeste 19 Sur 0 -- -- 91
2021-01-12 05:00:00 -9 12 Sur 15 Sur 0 -- -- 92
2021-01-12 04:00:00 -7.6 5 Sur 8 Sudoeste 0 -- -- 90
2021-01-12 03:00:00 -7.6 8 Sudoeste 13 Sudoeste 0 -- -- 92
2021-01-12 02:00:00 -7.6 10 Sudoeste 12 Sudoeste 0 -- -- 91
2021-01-12 01:00:00 -7.1 8 Sudoeste 11 Sur 0 -- -- 89
2021-01-12 00:00:00 -6.4 8 Sudoeste 11 Sur 0 -- -- 89
2021-01-11 23:00:00 -6.7 6 Sudoeste 13 Sur 0 -- -- 88
2021-01-11 22:00:00 -5.3 4 Sudeste 10 Sur 0 -- -- 84
2021-01-11 21:00:00 -3.3 2 Sur 5 Este 0 -- -- 83
2021-01-11 20:00:00 -1.7 2 Este 8 Nordeste 0 -- -- 79
2021-01-11 19:00:00 -0.2 5 Nordeste 16 Nordeste 0 -- -- 73
2021-01-11 18:00:00 1.4 14 Nordeste 23 Nordeste 0 -- -- 67
2021-01-11 17:00:00 2.9 11 Nordeste 22 Nordeste 0 -- -- 64
2021-01-11 16:00:00 3.1 15 Nordeste 27 Nordeste 0 -- -- 61
2021-01-11 15:00:00 2.8 19 Norte 32 Nordeste 0 -- -- 62
2021-01-11 14:00:00 2.6 10 Nordeste 22 Norte 0 -- -- 63
2021-01-11 13:00:00 1.8 0 Calma 6 Sur 0 -- -- 69
2021-01-11 12:00:00 -0.6 3 Sudoeste 9 Sur 0 -- -- 75
2021-01-11 11:00:00 -2.5 4 Sudoeste 9 Sur 0 -- -- 82
2021-01-11 10:00:00 -5.1 6 Sur 9 Sur 0 -- -- 86
2021-01-11 09:00:00 -5.5 2 Sudoeste 8 Sudeste 0 -- -- 88
2021-01-11 08:00:00 -5.9 5 Sur 9 Sudoeste 0 -- -- 89
2021-01-11 07:00:00 -6.2 2 Nordeste 8 Nordeste 0 -- -- 87
2021-01-11 06:00:00 -2.6 7 Nordeste 17 Nordeste 0 -- -- 80
2021-01-11 05:00:00 -2.4 5 Nordeste 15 Nordeste 0 -- -- 82
2021-01-11 04:00:00 -3 4 Nordeste 10 Nordeste 0 -- -- 84
2021-01-11 03:00:00 -2.1 3 Este 12 Nordeste -- -- -- 78
2021-01-11 02:00:00 -1.2 8 Este 21 Nordeste 0 -- -- 77
2021-01-11 01:00:00 -1.4 10 Nordeste 24 Norte 0 -- -- 77
2021-01-11 00:00:00 -0.8 12 Nordeste 37 Nordeste 0 -- -- 77
2021-01-10 23:00:00 -1 21 Nordeste 37 Nordeste 0 -- -- 75
2021-01-10 22:00:00 -1.4 17 Nordeste 31 Nordeste 0 -- -- 75
2021-01-10 21:00:00 -1.1 20 Nordeste 41 Nordeste 0 -- -- 74
2021-01-10 20:00:00 -1 12 Nordeste 21 Norte 0 -- -- 81
2021-01-10 19:00:00 -0.2 13 Norte 33 Nordeste 0 -- -- 79
2021-01-10 18:00:00 0.6 19 Nordeste 33 Norte 0 -- -- 75
2021-01-10 17:00:00 1.3 22 Nordeste 38 Nordeste 0 -- -- 73
2021-01-10 16:00:00 1.9 18 Nordeste 39 Nordeste 0 -- -- 71
2021-01-10 15:00:00 2 19 Nordeste 38 Nordeste 0.8 -- -- 72
2021-01-10 14:00:00 2.1 27 Nordeste 45 Nordeste 1 -- -- 72
2021-01-10 13:00:00 1.5 25 Nordeste 45 Nordeste 1.2 -- -- 74
2021-01-10 12:00:00 1.2 23 Nordeste 39 Nordeste 0.4 -- -- 75
2021-01-10 11:00:00 0.9 21 Nordeste 36 Nordeste 0.2 -- -- 79
2021-01-10 10:00:00 0.3 21 Nordeste 37 Nordeste 0 -- -- 82
2021-01-10 09:00:00 -0.3 20 Nordeste 28 Nordeste 0 -- -- 85
2021-01-10 08:00:00 -0.7 15 Nordeste 29 Nordeste 0 -- -- 86
2021-01-10 07:00:00 -0.8 18 Nordeste 27 Nordeste 0 -- -- 85
2021-01-10 06:00:00 -1.2 14 Nordeste 24 Nordeste 0 -- -- 86
2021-01-10 05:00:00 -1.5 17 Norte 24 Norte 0 -- -- 89
2021-01-10 04:00:00 -1.7 14 Nordeste 23 Nordeste 0 -- -- 91
2021-01-10 03:00:00 -1.8 14 Nordeste 21 Nordeste 0 -- -- 91
2021-01-10 02:00:00 -2.5 12 Nordeste 18 Norte 0 -- -- 91
2021-01-10 01:00:00 -2.4 11 Nordeste 17 Nordeste 0 -- -- 92
2021-01-10 00:00:00 -2.5 5 Nordeste 13 Este 0 -- -- 91
2021-01-09 23:00:00 -1.5 11 Este 20 Nordeste 0 -- -- 92
2021-01-09 22:00:00 -1.5 8 Nordeste 19 Nordeste 0 -- -- 94
2021-01-09 21:00:00 -1.6 9 Nordeste 20 Este 0 -- -- 95
2021-01-09 20:00:00 -1.8 13 Nordeste 22 Nordeste 0 -- -- 94
2021-01-09 19:00:00 -1.8 13 Nordeste 25 Nordeste 0 -- -- 94
2021-01-09 18:00:00 -1.8 16 Nordeste 27 Nordeste 0 -- -- 92
2021-01-09 17:00:00 -1.7 16 Nordeste 31 Nordeste 0 -- -- 91
2021-01-09 16:00:00 -1.7 22 Nordeste 37 Nordeste 0 -- -- 91
2021-01-09 15:00:00 -1.4 27 Nordeste 42 Nordeste 0.2 -- -- 87
2021-01-09 14:00:00 -1.6 26 Nordeste 40 Nordeste 0 -- -- 88
2021-01-09 13:00:00 -1.8 23 Nordeste 43 Nordeste 0 -- -- 89
2021-01-09 12:00:00 -2 25 Nordeste 42 Nordeste 0 -- -- 87
2021-01-09 11:00:00 -2.6 28 Nordeste 47 Nordeste 0 -- -- 89
2021-01-09 10:00:00 -2.9 29 Nordeste 45 Nordeste 0 -- -- 90
2021-01-09 09:00:00 -2.9 28 Nordeste 44 Nordeste 0 -- -- 91
2021-01-09 08:00:00 -3 23 Nordeste 34 Nordeste 0 -- -- 94
2021-01-09 07:00:00 -2.7 19 Nordeste 38 Nordeste 0 -- -- 94
2021-01-09 06:00:00 -2.2 21 Nordeste 36 Nordeste 0 -- -- 94
2021-01-09 05:00:00 -2.1 23 Nordeste 37 Nordeste 0 -- -- 94
2021-01-09 04:00:00 -2 22 Nordeste 33 Nordeste 0 -- -- 94
2021-01-09 03:00:00 -2 18 Nordeste 33 Nordeste 0 -- -- 94
2021-01-09 02:00:00 -1.8 20 Nordeste 39 Nordeste 0 -- -- 94
2021-01-09 01:00:00 -1.4 24 Nordeste 41 Nordeste 0 -- -- 92
2021-01-09 00:00:00 -1.3 24 Nordeste 35 Nordeste 0 -- -- 91
2021-01-08 23:00:00 -1.1 21 Nordeste 34 Nordeste 0 -- -- 91
2021-01-08 22:00:00 -1.2 18 Nordeste 28 Nordeste 0 -- -- 91
2021-01-08 21:00:00 -1.1 18 Nordeste 30 Nordeste 0 -- -- 91
2021-01-08 20:00:00 -1 14 Nordeste 27 Nordeste 0 -- -- 91
2021-01-08 19:00:00 -0.7 14 Nordeste 30 Nordeste 0 -- -- 87
2021-01-08 18:00:00 -0.5 14 Nordeste 22 Nordeste 0 -- -- 80
2021-01-08 17:00:00 -0.5 15 Nordeste 25 Nordeste 0 -- -- 77
2021-01-08 16:00:00 0.3 15 Nordeste 26 Nordeste 0 -- -- 67
2021-01-08 15:00:00 0.3 14 Nordeste 25 Nordeste 0 -- -- 64
2021-01-08 14:00:00 0 10 Nordeste 23 Nordeste 0 -- -- 71
2021-01-08 13:00:00 -2 6 Nordeste 10 Nordeste 0 -- -- 80
2021-01-08 12:00:00 -3.3 5 Nordeste 12 Nordeste 0 -- -- 81
2021-01-08 11:00:00 -4.4 7 Nordeste 10 Nordeste 0 -- -- 83
2021-01-08 10:00:00 -5.2 6 Nordeste 12 Nordeste 0 -- -- 85
2021-01-08 09:00:00 -5.5 5 Este 10 Nordeste 0 -- -- 87
2021-01-08 08:00:00 -5.5 7 Nordeste 17 Nordeste 0 -- -- 87
2021-01-08 07:00:00 -5.1 10 Nordeste 16 Nordeste 0 -- -- 87
2021-01-08 06:00:00 -4.9 12 Nordeste 18 Nordeste 0 -- -- 86
2021-01-08 05:00:00 -4.7 10 Nordeste 17 Nordeste 0 -- -- 86
2021-01-08 04:00:00 -4.8 8 Norte 16 Norte 0 -- -- 86
2021-01-08 03:00:00 -4.1 9 Nordeste 15 Nordeste 0 -- -- 85
2021-01-08 02:00:00 -4.3 8 Nordeste 12 Nordeste 0 -- -- 85
2021-01-08 01:00:00 -4.9 2 Nordeste 8 Norte 0 -- -- 85
2021-01-08 00:00:00 -4.1 5 Norte 8 Norte 0 -- -- 81
2021-01-07 23:00:00 -2.7 4 Norte 8 Nordeste 0 -- -- 76
2021-01-07 22:00:00 -2.5 5 Nordeste 9 Nordeste 0 -- -- 77
2021-01-07 21:00:00 -1.8 8 Nordeste 15 Nordeste 0 -- -- 77
2021-01-07 20:00:00 -0.6 10 Este 16 Nordeste 0 -- -- 73
2021-01-07 19:00:00 0.6 8 Nordeste 17 Nordeste 0 -- -- 70
2021-01-07 18:00:00 2.7 9 Nordeste 14 Nordeste 0 -- -- 63
2021-01-07 17:00:00 4.4 4 Norte 9 Norte 0 -- -- 57
2021-01-07 16:00:00 4.4 4 Noroeste 8 Noroeste 0 -- -- 58
2021-01-07 15:00:00 3.5 4 Noroeste 9 Norte 0 -- -- 64
2021-01-07 14:00:00 2 4 Noroeste 8 Norte 0 -- -- 70
2021-01-07 13:00:00 0.8 3 Nordeste 8 Nordeste 0 -- -- 75
2021-01-07 12:00:00 -2.2 4 Norte 6 Norte 0 -- -- 84
2021-01-07 11:00:00 -5 3 Noroeste 6 Norte 0 -- -- 90
2021-01-07 10:00:00 -4.8 5 Nordeste 8 Norte 0 -- -- 89
2021-01-07 09:00:00 -5.2 3 Sudeste 7 Este 0 -- -- 91
2021-01-07 08:00:00 -6.1 0 Calma 4 Norte 0 -- -- 91
2021-01-07 07:00:00 -6 2 Norte -- -- 0 -- -- 90
2021-01-07 06:00:00 -5.8 3 Norte 8 Norte 0 -- -- 89
2021-01-07 05:00:00 -5.4 4 Norte 6 Norte 0 -- -- 89
2021-01-07 04:00:00 -4.6 4 Nordeste 8 Este 0 -- -- 87
2021-01-07 03:00:00 -4 6 Este 9 Este 0 -- -- 87
2021-01-07 02:00:00 -3.9 4 Este 10 Este 0 -- -- 85
2021-01-07 01:00:00 -3 8 Este 14 Nordeste 0 -- -- 81
2021-01-07 00:00:00 -2.5 8 Este 14 Nordeste 0 -- -- 81
2021-01-06 23:00:00 -2.4 7 Este 15 Este 0 -- -- 81
2021-01-06 22:00:00 -2.2 12 Este 14 Este 0 -- -- 82
2021-01-06 21:00:00 -1 9 Este 17 Este 0 -- -- 77
2021-01-06 20:00:00 -0.1 9 Nordeste 14 Este 0 -- -- 74
2021-01-06 19:00:00 0.7 8 Nordeste 12 Nordeste 0 -- -- 71
2021-01-06 18:00:00 2.5 9 Nordeste 17 Nordeste 0 -- -- 64
2021-01-06 17:00:00 3.7 6 Nordeste 18 Nordeste 0 -- -- 59
2021-01-06 16:00:00 5.1 6 Nordeste 19 Este 0 -- -- 57
2021-01-06 15:00:00 4.5 6 Este 14 Este 0 -- -- 61
2021-01-06 14:00:00 3.7 2 Nordeste 8 Norte 0 -- -- 67
2021-01-06 13:00:00 1.6 4 Nordeste 10 Este 0 -- -- 74
2021-01-06 12:00:00 -0.3 8 Este 11 Este 0 -- -- 77
2021-01-06 11:00:00 -3.7 4 Norte 12 Sudeste 0 -- -- 86
2021-01-06 10:00:00 -5.6 9 Sudeste 12 Sudeste 0 -- -- 89
2021-01-06 09:00:00 -7.3 4 Este 14 Sudeste 0 -- -- 90
2021-01-06 08:00:00 -7.4 7 Este 8 Este 0 -- -- 91
2021-01-06 07:00:00 -6.6 6 Este 12 Sudeste 0 -- -- 91
2021-01-06 06:00:00 -6.3 8 Este 10 Sudeste 0 -- -- 92
2021-01-06 05:00:00 -6 7 Este 9 Este 0 -- -- 91
2021-01-06 04:00:00 -5.5 3 Este 4 Este 0 -- -- 91
2021-01-06 03:00:00 -5.4 2 Este 10 Sudeste 0 -- -- 90
2021-01-06 02:00:00 -4.8 9 Sudeste 10 Sudeste 0 -- -- 91
2021-01-06 01:00:00 -3.9 5 Este 9 Este 0 -- -- 87
2021-01-06 00:00:00 -3 7 Este 8 Este 0 -- -- 85
2021-01-05 23:00:00 -2.1 6 Sudeste 8 Sudeste 0 -- -- 81
2021-01-05 22:00:00 -1.4 3 Sudeste 4 Sudeste 0 -- -- 79
2021-01-05 21:00:00 -0.7 3 Norte 5 Norte 0 -- -- 76
2021-01-05 20:00:00 0.1 3 Norte 4 Norte 0 -- -- 73
2021-01-05 19:00:00 1 0 Calma 3 Norte 0 -- -- 70
2021-01-05 18:00:00 3.2 0 Calma 5 Norte 0 -- -- 62
2021-01-05 17:00:00 4.1 3 Noroeste 5 Noroeste 0 -- -- 59
2021-01-05 16:00:00 4.2 0 Calma 7 Oeste 0 -- -- 60
2021-01-05 15:00:00 3.6 2 Noroeste 6 Norte 0 -- -- 64
2021-01-05 14:00:00 2.6 4 Norte 9 Noroeste 0 -- -- 65
2021-01-05 13:00:00 2 0 Calma 9 Sudeste 0.8 -- -- 80
2021-01-05 12:00:00 -0.7 7 Sur 10 Sur 0.2 -- -- 86
2021-01-05 11:00:00 -3.5 6 Sudeste 9 Sudeste 0 -- -- 89
2021-01-05 10:00:00 -4.7 4 Sudeste 9 Sur 0 -- -- 94
2021-01-05 09:00:00 -6.8 5 Este 9 Sur 0 -- -- 93
2021-01-05 08:00:00 -6.4 6 Sur 8 Sudoeste 0 -- -- 92
2021-01-05 07:00:00 -5.9 9 Sudoeste 10 Sudoeste 0 -- -- 93
2021-01-05 06:00:00 -5.6 9 Sudoeste 11 Sudoeste 0 -- -- 93
2021-01-05 05:00:00 -5.8 9 Sudoeste 11 Sudoeste 0 -- -- 93
2021-01-05 04:00:00 -5.1 10 Sudoeste 12 Sudoeste 0 -- -- 94
2021-01-05 03:00:00 -5 10 Sudoeste 13 Sudoeste 0 -- -- 93
2021-01-05 02:00:00 -4.6 8 Sudoeste 14 Sudoeste 0 -- -- 94
2021-01-05 01:00:00 -3.8 6 Sudoeste 13 Oeste 0 -- -- 94
2021-01-05 00:00:00 -3 10 Sudoeste 15 Sudoeste 0 -- -- 95
2021-01-04 23:00:00 -2.7 8 Sudoeste 13 Sudoeste 0 -- -- 94
2021-01-04 22:00:00 -2.3 10 Sudoeste 15 Sudoeste 0 -- -- 93
2021-01-04 21:00:00 -1.5 13 Sudoeste 16 Sudoeste 0 -- -- 93
2021-01-04 20:00:00 -0.9 9 Sudoeste 25 Noroeste 0 -- -- 91
2021-01-04 19:00:00 0.2 8 Sudoeste 10 Sudoeste 0 -- -- 82
2021-01-04 18:00:00 2.6 5 Oeste 14 Noroeste 0 -- -- 71
2021-01-04 17:00:00 3.9 11 Noroeste 20 Oeste 0 -- -- 64
2021-01-04 16:00:00 3.4 15 Noroeste 21 Oeste 0 -- -- 68
2021-01-04 15:00:00 2.9 10 Oeste 24 Oeste 0 -- -- 70
2021-01-04 14:00:00 3.1 10 Oeste 24 Sudoeste 0 -- -- 72
2021-01-04 13:00:00 2.3 11 Oeste 19 Oeste 0 -- -- 79
2021-01-04 12:00:00 1 12 Oeste 24 Sudoeste 0 -- -- 86
2021-01-04 11:00:00 -0.2 15 Sudoeste 27 Sudoeste 0 -- -- 91
2021-01-04 10:00:00 -1.6 13 Sudoeste 21 Sudoeste 0 -- -- 96
2021-01-04 09:00:00 -3 12 Sudoeste 19 Sudoeste 0 -- -- 96
2021-01-04 08:00:00 -2.7 15 Sudoeste 21 Sudoeste 0 -- -- 96
2021-01-04 07:00:00 -2.9 14 Sudoeste 18 Sudoeste 0 -- -- 97
2021-01-04 06:00:00 -3 15 Sudoeste 18 Sudoeste 0 -- -- 96
2021-01-04 05:00:00 -2.8 13 Sudoeste 17 Sudoeste 0 -- -- 95
2021-01-04 04:00:00 -2.2 11 Sudoeste 15 Sudoeste 0 -- -- 95
2021-01-04 03:00:00 -1.6 13 Sudoeste 20 Sudoeste 0 -- -- 95
2021-01-04 02:00:00 -0.7 12 Sudoeste 21 Oeste 0 -- -- 93
2021-01-04 01:00:00 -0.6 12 Oeste 24 Sudoeste 0 -- -- 93
2021-01-04 00:00:00 0.4 15 Oeste 25 Oeste 0 -- -- 89
2021-01-03 23:00:00 0.3 12 Oeste 21 Oeste 0 -- -- 89
2021-01-03 22:00:00 0.4 15 Oeste 24 Oeste 0 -- -- 88
2021-01-03 21:00:00 0.6 15 Sudoeste 25 Sudoeste 0 -- -- 88
2021-01-03 20:00:00 1 15 Sudoeste 25 Sudoeste 0 -- -- 86
2021-01-03 19:00:00 1.1 20 Sudoeste 26 Sudoeste 0 -- -- 86
2021-01-03 18:00:00 1.4 18 Sudoeste 27 Sudoeste 0 -- -- 86
2021-01-03 17:00:00 2 20 Sudoeste 31 Sudoeste 0 -- -- 82
2021-01-03 16:00:00 1.2 18 Sudoeste 32 Sudoeste 0 -- -- 84
2021-01-03 15:00:00 0.4 20 Oeste 31 Sudoeste 0 -- -- 89
2021-01-03 14:00:00 0 15 Sudoeste 32 Sudoeste 0 -- -- 92
2021-01-03 13:00:00 -0.3 22 Sudoeste 32 Sudoeste 0 -- -- 93
2021-01-03 12:00:00 -1.2 15 Sudoeste 28 Sudoeste 0 -- -- 96
2021-01-03 11:00:00 -2.7 22 Sudoeste 28 Sudoeste 0 -- -- 96
2021-01-03 10:00:00 -2.7 17 Sudoeste 22 Sudoeste 0 -- -- 94
2021-01-03 09:00:00 -4.5 15 Sudoeste 18 Sudoeste 0 -- -- 94
2021-01-03 08:00:00 -4.8 14 Sudoeste 17 Sudoeste 0 -- -- 93
2021-01-03 07:00:00 -4.5 14 Sudoeste 17 Sudoeste 0 -- -- 92
2021-01-03 06:00:00 -4.7 10 Sudoeste 14 Sudoeste 0 -- -- 92
2021-01-03 05:00:00 -4.3 10 Sudoeste 14 Sudoeste 0 -- -- 91
2021-01-03 04:00:00 -4.1 9 Sudoeste 11 Sudoeste 0 -- -- 92
2021-01-03 03:00:00 -4 6 Sudoeste 10 Sudoeste 0 -- -- 91
2021-01-03 02:00:00 -3.5 9 Sudoeste 13 Sudoeste 0 -- -- 90
2021-01-03 01:00:00 -3 8 Sudoeste 11 Sudoeste 0 -- -- 89
2021-01-03 00:00:00 -2.4 5 Sudoeste 8 Sudoeste 0 -- -- 87
2021-01-02 23:00:00 -1.4 3 Oeste 5 Oeste 0 -- -- 81
2021-01-02 22:00:00 -0.9 3 Noroeste -- -- 0 -- -- 80
2021-01-02 21:00:00 -0.9 4 Noroeste 9 Oeste 0 -- -- 79
2021-01-02 20:00:00 -0.1 6 Oeste 12 Oeste 0 -- -- 76
2021-01-02 19:00:00 0.8 5 Oeste 10 Oeste 0 -- -- 71
2021-01-02 18:00:00 2.5 3 Oeste 13 Noroeste 0 -- -- 63
2021-01-02 17:00:00 4.1 2 Noroeste 8 Nordeste 0 -- -- 58
2021-01-02 16:00:00 2.8 2 Nordeste 14 Norte 0 -- -- 60
2021-01-02 15:00:00 3.7 6 Noroeste 14 Noroeste 0 -- -- 57
2021-01-02 14:00:00 2.7 9 Norte 18 Norte 0 -- -- 65